Time;durP1;ratioP1;P1;durP2;ratioP2;P2;SDS_P1;SDS_P2;PMS_P1;PMS_P2;Temp;Humidity;BMP_temperature;BMP_pressure;BME280_temperature;BME280_humidity;BME280_pressure;Samples;Min_cycle;Max_cycle;Signal;HPM_P1;HPM_P2
2022/07/25 00:00:05;;;;;;;11.32;8.70;;;;;;;21.59;71.06;100989.72;5108602;28;20049;-73
2022/07/25 00:02:30;;;;;;;9.45;8.48;;;;;;;21.56;71.74;100992.56;5097517;28;20058;-73
2022/07/25 00:04:56;;;;;;;10.10;9.05;;;;;;;21.55;72.15;100993.53;5107643;28;20470;-73
2022/07/25 00:07:21;;;;;;;9.77;8.77;;;;;;;21.53;71.98;100987.47;5100597;28;20027;-73
2022/07/25 00:09:46;;;;;;;11.38;8.68;;;;;;;21.56;71.94;100976.66;5104730;28;20024;-73
2022/07/25 00:12:11;;;;;;;11.50;8.60;;;;;;;21.51;72.47;100978.75;5109525;28;20052;-73
2022/07/25 00:14:37;;;;;;;10.63;8.90;;;;;;;21.46;72.07;100976.44;5101650;28;20023;-73
2022/07/25 00:17:02;;;;;;;9.45;8.45;;;;;;;21.42;72.80;100968.78;5095407;28;20123;-73
2022/07/25 00:19:27;;;;;;;9.73;8.73;;;;;;;21.44;72.99;100972.16;5092682;28;20474;-73
2022/07/25 00:21:53;;;;;;;11.27;8.88;;;;;;;21.38;72.93;100967.28;5096416;28;20032;-73
2022/07/25 00:24:18;;;;;;;9.65;8.65;;;;;;;21.38;72.93;100960.16;5100971;28;20425;-73
2022/07/25 00:26:43;;;;;;;11.45;8.45;;;;;;;21.38;73.28;100964.63;5102111;27;20102;-73
2022/07/25 00:29:09;;;;;;;10.43;9.35;;;;;;;21.36;73.17;100967.38;5112177;28;20024;-73
2022/07/25 00:31:34;;;;;;;10.23;8.90;;;;;;;21.37;73.48;100958.47;5093900;28;20074;-73
2022/07/25 00:33:59;;;;;;;10.98;8.73;;;;;;;21.35;73.79;100954.22;5096541;28;20039;-73
2022/07/25 00:36:25;;;;;;;10.48;8.68;;;;;;;21.32;74.30;100949.09;5106425;28;20490;-72
2022/07/25 00:38:50;;;;;;;9.25;8.35;;;;;;;21.28;74.32;100943.97;5108689;28;20024;-73
2022/07/25 00:41:15;;;;;;;10.60;8.88;;;;;;;21.23;74.93;100945.25;5105603;28;20119;-73
2022/07/25 00:43:44;;;;;;;9.98;8.48;;;;;;;21.16;74.85;100939.53;5114596;28;20027;-73
2022/07/25 00:46:16;;;;;;;9.88;8.80;;;;;;;21.17;74.51;100940.38;5099255;28;20069;-73
2022/07/25 00:48:43;;;;;;;9.75;8.85;;;;;;;21.09;74.60;100937.34;5099999;28;20033;-73
2022/07/25 00:51:09;;;;;;;9.88;8.70;;;;;;;21.07;74.78;100934.81;5096901;28;20215;-73
2022/07/25 00:53:36;;;;;;;11.93;8.88;;;;;;;21.05;75.23;100934.06;5085186;28;20115;-73
2022/07/25 00:56:03;;;;;;;10.15;8.50;;;;;;;21.04;74.45;100924.41;5098677;28;20047;-73
2022/07/25 00:58:28;;;;;;;9.90;8.10;;;;;;;20.99;74.94;100922.09;5109898;28;20031;-73
2022/07/25 01:00:54;;;;;;;9.38;8.48;;;;;;;21.01;74.97;100928.13;5105334;28;20031;-73
2022/07/25 01:03:19;;;;;;;9.20;8.15;;;;;;;20.96;74.74;100921.41;5094631;28;20043;-73
2022/07/25 01:05:44;;;;;;;9.82;8.45;;;;;;;20.97;74.31;100912.53;5095403;28;20499;-73
2022/07/25 01:08:11;;;;;;;8.98;8.07;;;;;;;20.92;73.94;100902.22;5107055;28;20034;-73
2022/07/25 01:10:37;;;;;;;11.55;8.38;;;;;;;20.93;74.73;100917.19;5097947;28;20074;-73
2022/07/25 01:13:03;;;;;;;9.43;8.48;;;;;;;20.91;73.90;100912.94;5113946;28;20028;-73
2022/07/25 01:15:28;;;;;;;9.70;8.70;;;;;;;20.89;73.89;100899.75;5098102;28;20042;-73
2022/07/25 01:17:54;;;;;;;9.02;8.13;;;;;;;20.87;74.12;100898.19;5102564;28;20074;-73
2022/07/25 01:20:25;;;;;;;8.85;7.95;;;;;;;20.83;73.18;100900.19;5091657;28;20033;-73
2022/07/25 01:22:52;;;;;;;10.75;8.65;;;;;;;20.79;73.66;100894.22;5107793;28;20036;-73
2022/07/25 01:25:18;;;;;;;9.30;8.02;;;;;;;20.80;74.60;100888.00;5091748;28;20031;-73
2022/07/25 01:27:44;;;;;;;10.55;8.07;;;;;;;20.80;74.17;100888.00;5093999;28;20024;-73
2022/07/25 01:30:13;;;;;;;9.05;8.07;;;;;;;20.77;73.10;100896.13;5090756;28;20047;-73
2022/07/25 01:32:38;;;;;;;8.57;7.78;;;;;;;20.75;74.64;100892.72;5097445;28;20063;-73
2022/07/25 01:35:06;;;;;;;9.68;8.15;;;;;;;20.80;74.50;100885.34;5101138;28;20116;-73
2022/07/25 01:37:31;;;;;;;10.20;7.85;;;;;;;20.75;74.31;100884.78;5089504;28;20054;-73
2022/07/25 01:39:57;;;;;;;9.18;8.27;;;;;;;20.72;73.82;100882.31;5092899;28;20478;-73
2022/07/25 01:42:22;;;;;;;9.18;8.10;;;;;;;20.73;74.18;100878.75;5092668;28;20060;-73
2022/07/25 01:44:48;;;;;;;11.88;8.10;;;;;;;20.72;73.82;100884.97;5091134;28;20028;-73
2022/07/25 01:47:13;;;;;;;9.45;8.45;;;;;;;20.72;73.40;100876.19;5092575;28;20036;-73
2022/07/25 01:49:39;;;;;;;9.88;8.25;;;;;;;20.71;73.61;100870.03;5090732;28;20070;-73
2022/07/25 01:52:04;;;;;;;11.48;7.88;;;;;;;20.75;73.42;100870.69;5091829;28;20036;-73
2022/07/25 01:54:31;;;;;;;10.55;7.93;;;;;;;20.73;73.56;100862.84;5090050;28;20028;-73
2022/07/25 01:56:56;;;;;;;12.63;7.25;;;;;;;20.74;73.53;100859.25;5089871;28;20032;-73
2022/07/25 01:59:21;;;;;;;8.77;7.70;;;;;;;20.74;72.61;100848.66;5090567;28;20498;-73
2022/07/25 02:01:47;;;;;;;7.78;7.00;;;;;;;20.75;73.18;100852.97;5089873;28;20035;-73
2022/07/25 02:04:12;;;;;;;8.60;7.22;;;;;;;20.76;73.24;100843.22;5090028;28;20016;-73
2022/07/25 02:06:40;;;;;;;8.20;7.22;;;;;;;20.78;72.91;100847.47;5091371;28;20446;-73
2022/07/25 02:09:06;;;;;;;8.85;7.28;;;;;;;20.85;72.64;100847.09;5090984;28;20104;-73
2022/07/25 02:11:32;;;;;;;8.32;7.50;;;;;;;20.86;71.59;100841.66;5091048;28;20383;-73
2022/07/25 02:13:57;;;;;;;9.95;7.35;;;;;;;20.87;72.60;100847.84;5091182;28;20475;-73
2022/07/25 02:16:22;;;;;;;11.30;7.63;;;;;;;20.89;72.46;100844.13;5091286;28;20028;-73
2022/07/25 02:18:48;;;;;;;8.25;7.40;;;;;;;20.86;72.70;100843.47;5089661;28;20380;-73
2022/07/25 02:21:13;;;;;;;11.57;7.93;;;;;;;20.87;73.89;100842.53;5090908;28;20089;-73
2022/07/25 02:23:39;;;;;;;10.57;7.35;;;;;;;20.86;71.94;100836.38;5090950;28;20028;-73
2022/07/25 02:26:04;;;;;;;9.00;6.70;;;;;;;20.88;71.02;100839.78;5089427;28;20150;-73
2022/07/25 02:28:30;;;;;;;12.90;7.68;;;;;;;20.84;71.80;100842.75;5091168;28;20089;-73
2022/07/25 02:30:55;;;;;;;8.73;7.35;;;;;;;20.79;72.03;100837.72;5088867;28;20027;-73
2022/07/25 02:33:21;;;;;;;8.45;7.38;;;;;;;20.83;71.95;100833.06;5090939;28;20034;-73
2022/07/25 02:35:47;;;;;;;8.32;6.95;;;;;;;20.79;72.09;100824.47;5088940;28;20383;-73
2022/07/25 02:38:18;;;;;;;8.18;7.38;;;;;;;20.83;71.32;100827.78;5091452;28;20028;-73
2022/07/25 02:40:47;;;;;;;12.77;7.47;;;;;;;20.81;70.09;100833.19;5089763;28;20028;-73
2022/07/25 02:43:13;;;;;;;8.68;7.30;;;;;;;20.77;70.80;100821.94;5090583;28;20467;-72
2022/07/25 02:45:38;;;;;;;8.38;7.38;;;;;;;20.74;70.71;100818.66;5088801;28;20020;-73
2022/07/25 02:48:04;;;;;;;10.35;7.35;;;;;;;20.74;71.22;100816.84;5090452;28;20395;-73
2022/07/25 02:50:29;;;;;;;8.13;7.30;;;;;;;20.71;72.72;100817.06;5087984;28;20032;-73
2022/07/25 02:52:54;;;;;;;11.63;7.88;;;;;;;20.70;72.97;100815.38;5089655;28;20032;-72
2022/07/25 02:55:20;;;;;;;11.38;7.28;;;;;;;20.66;72.63;100813.84;5088378;28;20043;-72
2022/07/25 02:57:45;;;;;;;9.32;7.30;;;;;;;20.62;72.33;100808.88;5090259;28;20028;-73
2022/07/25 03:00:11;;;;;;;7.95;7.00;;;;;;;20.63;71.86;100808.75;5088034;28;20031;-73
2022/07/25 03:02:37;;;;;;;10.07;7.80;;;;;;;20.56;72.33;100813.59;5091208;28;20020;-73
2022/07/25 03:05:08;;;;;;;8.25;6.90;;;;;;;20.57;71.97;100811.84;5090364;28;20081;-73
2022/07/25 03:07:34;;;;;;;9.50;7.38;;;;;;;20.55;71.89;100809.28;5088081;28;20081;-73
2022/07/25 03:09:59;;;;;;;8.15;6.97;;;;;;;20.57;70.40;100793.28;5088332;28;20103;-72
2022/07/25 03:12:25;;;;;;;8.93;7.22;;;;;;;20.52;70.02;100795.38;5089596;28;20107;-73
2022/07/25 03:14:50;;;;;;;11.55;7.80;;;;;;;20.50;70.30;100789.28;5089317;28;20095;-73
2022/07/25 03:17:15;;;;;;;10.70;7.25;;;;;;;20.55;70.74;100784.59;5088687;28;20031;-72
2022/07/25 03:19:41;;;;;;;10.65;7.53;;;;;;;20.53;69.77;100782.03;5087537;28;20025;-72
2022/07/25 03:22:06;;;;;;;9.30;6.88;;;;;;;20.54;69.80;100788.19;5098799;28;20035;-73
2022/07/25 03:24:31;;;;;;;10.05;7.05;;;;;;;20.56;68.64;100786.28;5098962;28;20763;-73
2022/07/25 03:26:56;;;;;;;11.02;6.93;;;;;;;20.56;68.80;100783.63;5092248;28;20065;-73
2022/07/25 03:29:22;;;;;;;9.73;7.60;;;;;;;20.57;69.10;100782.69;5093052;28;20019;-72
2022/07/25 03:31:47;;;;;;;8.95;7.68;;;;;;;20.57;68.63;100788.00;5096263;28;20490;-72
2022/07/25 03:34:12;;;;;;;10.27;7.25;;;;;;;20.60;68.07;100782.50;5096770;28;20020;-73
2022/07/25 03:36:38;;;;;;;8.30;7.40;;;;;;;20.58;68.32;100792.34;5108836;28;20028;-73
2022/07/25 03:39:03;;;;;;;8.35;6.82;;;;;;;20.60;67.08;100787.78;5099739;28;20352;-73
2022/07/25 03:41:28;;;;;;;11.00;7.85;;;;;;;20.55;67.65;100779.28;5093137;28;20024;-72
2022/07/25 03:43:53;;;;;;;8.15;7.35;;;;;;;20.57;69.38;100783.53;5089538;28;20408;-73
2022/07/25 03:46:19;;;;;;;8.30;7.20;;;;;;;20.57;68.19;100788.00;5093306;28;20789;-73
2022/07/25 03:48:44;;;;;;;8.32;7.25;;;;;;;20.54;67.74;100775.81;5094285;28;20019;-73
2022/07/25 03:51:10;;;;;;;8.30;7.13;;;;;;;20.55;67.70;100781.94;5087991;28;20517;-73
2022/07/25 03:54:00;;;;;;;9.60;6.90;;;;;;;20.54;68.70;100780.25;5096728;28;20035;-73
2022/07/25 03:56:20;;;;;;;8.48;7.60;;;;;;;20.55;68.18;100779.28;5078096;28;20143;-73
2022/07/25 03:58:45;;;;;;;10.68;7.65;;;;;;;20.56;69.17;100780.97;5090092;28;20412;-72
2022/07/25 04:01:11;;;;;;;8.15;6.88;;;;;;;20.60;69.42;100773.69;5086996;28;20035;-73
2022/07/25 04:03:36;;;;;;;8.77;7.50;;;;;;;20.56;68.82;100776.53;5089173;28;20035;-72
2022/07/25 04:06:02;;;;;;;11.20;6.93;;;;;;;20.57;70.34;100766.81;5088547;28;20898;-72
2022/07/25 04:08:27;;;;;;;11.18;8.00;;;;;;;20.56;69.50;100765.94;5088831;28;20055;-72
2022/07/25 04:10:52;;;;;;;8.65;7.22;;;;;;;20.62;69.62;100771.78;5088210;28;20425;-73
2022/07/25 04:13:18;;;;;;;11.88;7.10;;;;;;;20.60;68.74;100771.91;5090695;28;20102;-73
2022/07/25 04:15:43;;;;;;;8.70;6.88;;;;;;;20.52;69.30;100769.75;5090331;28;20384;-73
2022/07/25 04:18:08;;;;;;;9.80;6.90;;;;;;;20.57;69.44;100770.31;5089183;28;20102;-73
2022/07/25 04:20:36;;;;;;;8.07;7.28;;;;;;;20.57;68.92;100777.41;5086280;28;20468;-72
2022/07/25 04:23:01;;;;;;;8.50;7.50;;;;;;;20.60;70.30;100761.31;5090485;28;20451;-73
2022/07/25 04:25:26;;;;;;;9.48;7.75;;;;;;;20.62;70.04;100761.19;5089017;28;20052;-73
2022/07/25 04:27:52;;;;;;;9.95;7.78;;;;;;;20.69;70.51;100760.69;5089179;28;20449;-73
2022/07/25 04:30:18;;;;;;;11.68;7.63;;;;;;;20.62;69.95;100754.09;5093071;28;20032;-73
2022/07/25 04:32:43;;;;;;;9.77;7.18;;;;;;;20.61;70.37;100754.22;5092915;28;20024;-73
2022/07/25 04:35:08;;;;;;;13.40;7.75;;;;;;;20.55;69.61;100766.91;5091902;28;20035;-73
2022/07/25 04:37:35;;;;;;;10.93;7.20;;;;;;;20.57;69.56;100764.16;5094186;28;20043;-73
2022/07/25 04:40:00;;;;;;;12.25;7.75;;;;;;;20.63;69.33;100766.38;5092499;28;20020;-73
2022/07/25 04:42:26;;;;;;;11.60;7.65;;;;;;;20.63;69.11;100779.63;5093176;28;20717;-73
2022/07/25 04:44:52;;;;;;;11.73;7.68;;;;;;;20.67;69.45;100770.53;5092604;28;20135;-72
2022/07/25 04:47:17;;;;;;;8.98;6.88;;;;;;;20.64;69.03;100767.25;5092406;28;20110;-73
2022/07/25 04:49:42;;;;;;;11.48;7.13;;;;;;;20.64;69.28;100756.66;5090505;28;20028;-73
2022/07/25 04:52:07;;;;;;;8.20;7.25;;;;;;;20.68;69.84;100756.34;5091369;28;20542;-73
2022/07/25 04:54:33;;;;;;;9.95;7.40;;;;;;;20.71;68.00;100755.28;5092558;28;20039;-73
2022/07/25 04:56:58;;;;;;;11.30;7.60;;;;;;;20.71;69.59;100753.47;5092149;28;20044;-73
2022/07/25 04:59:24;;;;;;;10.85;7.53;;;;;;;20.76;69.18;100761.97;5093024;28;20521;-73
2022/07/25 05:01:49;;;;;;;9.20;7.05;;;;;;;20.80;68.64;100758.16;5092159;28;20036;-73
2022/07/25 05:04:14;;;;;;;10.02;7.50;;;;;;;20.88;67.96;100755.00;5091368;28;20028;-73
2022/07/25 05:06:40;;;;;;;9.02;7.18;;;;;;;20.92;67.80;100766.22;5091966;28;20055;-73
2022/07/25 05:09:05;;;;;;;9.40;6.78;;;;;;;20.95;68.30;100758.06;5092701;28;20109;-72
2022/07/25 05:11:30;;;;;;;9.00;7.25;;;;;;;21.02;67.86;100759.34;5092421;28;20062;-73
2022/07/25 05:13:55;;;;;;;9.77;6.53;;;;;;;21.10;69.24;100749.06;5091773;28;20027;-73
2022/07/25 05:16:21;;;;;;;8.32;7.03;;;;;;;21.16;67.64;100759.25;5091595;28;20029;-73
2022/07/25 05:18:46;;;;;;;8.35;7.28;;;;;;;21.19;66.86;100751.09;5090295;28;20029;-72
2022/07/25 05:21:11;;;;;;;9.18;7.05;;;;;;;21.27;67.90;100767.31;5090322;28;20036;-73
2022/07/25 05:23:37;;;;;;;9.95;7.07;;;;;;;21.35;67.11;100766.78;5092447;28;20016;-73
2022/07/25 05:26:02;;;;;;;10.00;6.72;;;;;;;21.40;65.80;100755.88;5091821;28;20043;-73
2022/07/25 05:28:27;;;;;;;7.68;6.85;;;;;;;21.45;67.72;100751.09;5090974;28;20113;-72
2022/07/25 05:30:52;;;;;;;10.00;7.45;;;;;;;21.51;67.73;100751.50;5091442;28;20028;-73
2022/07/25 05:33:18;;;;;;;9.20;6.88;;;;;;;21.58;67.08;100761.69;5090206;28;20099;-73
2022/07/25 05:35:43;;;;;;;11.25;6.60;;;;;;;21.63;67.46;100767.53;5080451;28;20031;-73
2022/07/25 05:38:08;;;;;;;12.38;7.32;;;;;;;21.65;65.74;100769.13;5091408;28;20382;-73
2022/07/25 05:40:33;;;;;;;11.02;7.78;;;;;;;21.64;66.83;100775.34;5092279;28;20534;-73
2022/07/25 05:42:59;;;;;;;9.63;7.38;;;;;;;21.67;65.45;100769.84;5090312;28;20036;-73
2022/07/25 05:45:24;;;;;;;9.20;7.38;;;;;;;21.79;66.71;100769.94;5092458;28;20860;-73
2022/07/25 05:47:49;;;;;;;9.35;7.35;;;;;;;21.82;67.07;100767.91;5091115;28;20024;-73
2022/07/25 05:50:15;;;;;;;9.63;7.38;;;;;;;21.85;67.63;100766.84;5090305;28;20119;-73
2022/07/25 05:52:40;;;;;;;11.82;7.85;;;;;;;21.84;67.52;100765.97;5089661;28;20035;-73
2022/07/25 05:55:06;;;;;;;14.13;7.95;;;;;;;21.83;67.10;100764.28;5091648;28;20475;-74
2022/07/25 05:57:31;;;;;;;11.35;8.32;;;;;;;21.86;64.73;100779.16;5090175;28;20060;-73
2022/07/25 05:59:56;;;;;;;7.45;6.72;;;;;;;21.86;65.92;100784.44;5088746;28;20074;-73
2022/07/25 06:02:22;;;;;;;10.35;7.40;;;;;;;21.83;67.38;100774.91;5090556;28;20059;-73
2022/07/25 06:04:47;;;;;;;10.65;7.25;;;;;;;21.82;66.67;100783.81;5089307;28;20054;-73
2022/07/25 06:07:12;;;;;;;10.25;7.97;;;;;;;21.91;66.73;100792.94;5090147;28;20034;-73
2022/07/25 06:09:38;;;;;;;10.45;7.45;;;;;;;21.89;65.00;100779.78;5090407;28;20027;-73
2022/07/25 06:12:03;;;;;;;12.10;7.28;;;;;;;21.93;64.43;100788.34;5090926;28;20058;-73
2022/07/25 06:14:29;;;;;;;10.68;7.20;;;;;;;21.85;65.75;100778.31;5090087;28;20073;-73
2022/07/25 06:16:54;;;;;;;12.18;7.07;;;;;;;21.84;65.38;100787.19;5090127;28;20046;-73
2022/07/25 06:19:19;;;;;;;8.07;6.35;;;;;;;21.82;66.06;100780.31;5089321;28;20158;-73
2022/07/25 06:21:45;;;;;;;9.55;7.13;;;;;;;21.77;64.24;100785.09;5091688;28;20031;-73
2022/07/25 06:24:10;;;;;;;8.75;6.18;;;;;;;21.83;66.17;100788.16;5090467;28;20479;-73
2022/07/25 06:26:39;;;;;;;10.00;6.45;;;;;;;21.90;64.77;100793.88;5090936;28;20130;-73
2022/07/25 06:29:04;;;;;;;10.25;6.65;;;;;;;21.95;65.14;100789.09;5082254;28;20016;-73
2022/07/25 06:31:29;;;;;;;10.77;6.53;;;;;;;21.99;64.55;100806.50;5088747;28;20024;-73
2022/07/25 06:33:55;;;;;;;10.63;6.82;;;;;;;22.00;64.21;100800.22;5089538;28;20147;-73
2022/07/25 06:36:20;;;;;;;7.13;5.97;;;;;;;21.98;63.80;100786.22;5090399;28;20084;-73
2022/07/25 06:38:45;;;;;;;12.00;6.65;;;;;;;22.06;63.69;100786.50;5089413;28;20024;-73
2022/07/25 06:41:14;;;;;;;7.28;6.18;;;;;;;22.14;64.02;100800.09;5090261;28;20096;-73
2022/07/25 06:43:40;;;;;;;6.78;5.70;;;;;;;22.20;65.38;100796.16;5089977;28;20032;-73
2022/07/25 06:46:05;;;;;;;8.05;5.97;;;;;;;22.27;65.49;100799.19;5088051;28;20024;-73
2022/07/25 06:48:30;;;;;;;7.70;5.80;;;;;;;22.29;64.25;100792.84;5088528;28;20369;-73
2022/07/25 06:50:56;;;;;;;7.22;6.00;;;;;;;22.44;64.23;100802.34;5088861;28;20028;-73
2022/07/25 06:53:21;;;;;;;6.50;5.75;;;;;;;22.55;63.14;100798.03;5085935;28;20022;-73
2022/07/25 06:55:46;;;;;;;8.75;5.85;;;;;;;22.50;63.97;100805.47;5089879;28;20048;-73
2022/07/25 06:58:11;;;;;;;8.15;5.95;;;;;;;22.43;63.80;100797.13;5092100;28;20051;-73
2022/07/25 07:00:37;;;;;;;7.38;5.20;;;;;;;22.36;64.93;100798.53;5090520;28;20032;-73
2022/07/25 07:03:03;;;;;;;8.77;5.32;;;;;;;22.36;64.54;100793.22;5090999;28;20040;-73
2022/07/25 07:05:31;;;;;;;6.68;5.13;;;;;;;22.42;65.70;100796.28;5090871;28;20432;-73
2022/07/25 07:07:57;;;;;;;9.82;5.35;;;;;;;22.46;66.20;100804.84;5087418;28;20013;-73
2022/07/25 07:10:22;;;;;;;7.60;5.07;;;;;;;22.46;65.16;100796.91;5091308;28;20115;-73
2022/07/25 07:12:48;;;;;;;7.72;4.95;;;;;;;22.48;65.56;100791.47;5082358;28;20526;-73
2022/07/25 07:15:14;;;;;;;9.38;4.72;;;;;;;22.52;64.94;100793.78;5088937;28;20035;-75
2022/07/25 07:17:40;;;;;;;11.05;4.50;;;;;;;22.73;65.52;100801.97;5091341;28;20103;-75
2022/07/25 07:20:06;;;;;;;8.70;4.68;;;;;;;22.93;63.89;100795.19;5087654;28;20120;-75
2022/07/25 07:22:31;;;;;;;8.52;4.80;;;;;;;23.03;63.79;100792.69;5088591;28;20130;-75
2022/07/25 07:24:57;;;;;;;10.45;4.50;;;;;;;23.06;62.60;100793.28;5090875;28;20070;-75
2022/07/25 07:27:23;;;;;;;5.53;3.78;;;;;;;23.13;63.49;100794.50;5090320;28;20070;-75
2022/07/25 07:29:49;;;;;;;7.20;4.00;;;;;;;23.14;63.26;100798.84;5089837;28;20024;-75
2022/07/25 07:32:14;;;;;;;8.45;3.95;;;;;;;23.33;63.29;100797.44;5086923;28;20073;-75
2022/07/25 07:34:39;;;;;;;6.70;3.50;;;;;;;23.42;64.27;100802.03;5088502;28;20031;-75
2022/07/25 07:37:04;;;;;;;5.13;3.78;;;;;;;23.36;63.42;100799.84;5090293;28;20063;-75
2022/07/25 07:39:30;;;;;;;7.65;3.50;;;;;;;23.29;64.00;100801.31;5088684;28;20023;-74
2022/07/25 07:41:55;;;;;;;7.07;3.70;;;;;;;23.11;64.78;100807.06;5080820;28;20498;-75
2022/07/25 07:44:20;;;;;;;4.47;2.80;;;;;;;22.95;66.14;100805.69;5090003;28;20039;-75
2022/07/25 07:46:46;;;;;;;8.18;3.15;;;;;;;22.76;65.90;100815.03;5090736;28;20483;-75
2022/07/25 07:49:11;;;;;;;5.95;2.80;;;;;;;22.68;67.20;100810.28;5087123;28;20024;-75
2022/07/25 07:51:36;;;;;;;6.35;3.03;;;;;;;22.85;67.99;100806.34;5089221;28;20028;-75
2022/07/25 07:56:46;;;;;;;5.88;2.47;;;;;;;23.86;65.00;100796.84;5089974;28;20043;-75
2022/07/25 07:59:11;;;;;;;8.88;2.58;;;;;;;24.26;62.13;100807.78;5089967;28;20032;-75
2022/07/25 08:01:37;;;;;;;5.43;2.58;;;;;;;24.40;61.96;100809.34;5091108;28;20465;-74
2022/07/25 08:04:02;;;;;;;5.95;2.38;;;;;;;24.44;61.91;100806.31;5092537;28;20116;-75
2022/07/25 08:06:28;;;;;;;5.63;1.80;;;;;;;24.36;61.53;100814.09;5094614;28;20051;-75
2022/07/25 08:08:53;;;;;;;5.70;1.80;;;;;;;24.20;61.67;100816.31;5094697;28;20031;-75
2022/07/25 08:11:18;;;;;;;6.57;2.30;;;;;;;24.16;62.51;100814.84;5088496;28;20073;-75
2022/07/25 08:13:44;;;;;;;3.17;1.92;;;;;;;24.21;62.23;100818.00;5091993;28;20028;-75
2022/07/25 08:16:10;;;;;;;6.45;2.10;;;;;;;24.12;63.02;100810.75;5094216;28;20027;-75
2022/07/25 08:18:36;;;;;;;6.75;2.10;;;;;;;23.98;62.32;100822.50;5093709;28;20455;-76
2022/07/25 08:21:04;;;;;;;5.10;1.90;;;;;;;;;;5091747;28;20136;-75
2022/07/25 08:23:32;;;;;;;7.35;2.30;;;;;;;23.55;65.22;100818.75;5092475;28;20475;-75
2022/07/25 08:25:58;;;;;;;6.65;1.67;;;;;;;23.49;66.00;100819.22;5092770;28;20031;-75
2022/07/25 08:28:23;;;;;;;4.53;2.20;;;;;;;23.64;65.36;100813.66;5093562;28;20020;-75
2022/07/25 08:30:49;;;;;;;4.68;2.13;;;;;;;23.73;64.24;100812.97;5093622;28;20046;-75
2022/07/25 08:33:17;;;;;;;5.45;1.90;;;;;;;23.64;65.17;100818.97;5093081;28;20482;-75
2022/07/25 08:35:53;;;;;;;5.43;1.58;;;;;;;23.60;65.97;100827.19;5093940;28;20028;-75
2022/07/25 08:38:23;;;;;;;6.55;1.90;;;;;;;23.81;67.32;100831.84;5093476;28;20016;-75
2022/07/25 08:40:48;;;;;;;6.75;1.98;;;;;;;24.11;63.79;100823.22;5092411;28;20074;-75
2022/07/25 08:43:15;;;;;;;5.40;1.73;;;;;;;24.60;62.88;100831.72;5093428;28;20040;-75
2022/07/25 08:45:49;;;;;;;6.57;1.63;;;;;;;25.11;60.91;100828.31;5093226;28;20028;-76
2022/07/25 08:48:20;;;;;;;5.38;1.85;;;;;;;25.43;60.13;100815.75;5092422;28;20032;-76
2022/07/25 08:50:46;;;;;;;3.55;1.77;;;;;;;25.66;58.31;100815.56;5092512;28;20032;-75
2022/07/25 08:53:13;;;;;;;4.75;1.90;;;;;;;26.01;59.40;100819.69;5092925;28;20028;-75
2022/07/25 08:55:39;;;;;;;6.25;2.13;;;;;;;26.31;57.45;100814.25;5093615;28;20505;-76
2022/07/25 08:58:04;;;;;;;4.57;2.20;;;;;;;26.28;57.52;100814.53;5093942;28;20124;-75
2022/07/25 09:00:29;;;;;;;6.70;2.40;;;;;;;26.02;57.70;100816.00;5091203;28;20063;-75
2022/07/25 09:02:57;;;;;;;5.57;2.03;;;;;;;25.80;58.20;100833.06;5093267;28;20024;-75
2022/07/25 09:05:24;;;;;;;9.07;2.20;;;;;;;25.73;59.35;100831.91;5092409;28;20111;-75
2022/07/25 09:07:50;;;;;;;10.80;2.28;;;;;;;25.78;58.76;100825.19;5086059;28;20024;-76
2022/07/25 09:10:20;;;;;;;8.45;2.88;;;;;;;25.60;58.65;100822.28;5084440;28;20031;-76
2022/07/25 09:12:54;;;;;;;6.65;2.10;;;;;;;25.50;59.96;100828.56;5087020;28;20024;-76
2022/07/25 09:15:24;;;;;;;7.32;2.25;;;;;;;25.58;59.10;100832.28;5087439;28;20034;-76
2022/07/25 09:17:51;;;;;;;6.45;2.33;;;;;;;25.84;58.03;100830.03;5093058;28;20025;-77
2022/07/25 09:20:16;;;;;;;5.65;2.40;;;;;;;26.26;57.51;100839.69;5091978;28;20020;-75
2022/07/25 09:22:43;;;;;;;5.47;2.22;;;;;;;26.41;58.91;100834.81;5089865;28;20032;-76
2022/07/25 09:25:22;;;;;;;7.43;2.58;;;;;;;26.47;57.28;100831.56;5086876;28;20035;-76
2022/07/25 09:27:47;;;;;;;7.30;2.13;;;;;;;26.18;57.42;100824.34;5086298;28;20028;-76
2022/07/25 09:30:14;;;;;;;5.40;2.10;;;;;;;25.88;56.53;100847.47;5091814;28;20035;-76
2022/07/25 09:32:39;;;;;;;6.05;2.17;;;;;;;25.81;57.97;100845.47;5092400;28;20020;-76
2022/07/25 09:35:05;;;;;;;7.80;2.50;;;;;;;25.78;57.65;100851.06;5091101;28;20020;-76
2022/07/25 09:37:30;;;;;;;6.05;2.28;;;;;;;25.65;57.51;100846.78;5090357;28;20024;-77
2022/07/25 09:39:55;;;;;;;6.43;2.40;;;;;;;25.41;58.58;100872.94;5091591;28;20023;-73
2022/07/25 09:42:27;;;;;;;5.75;2.63;;;;;;;25.15;59.46;100877.81;5091273;28;20331;-73
2022/07/25 09:44:57;;;;;;;6.35;2.58;;;;;;;25.31;57.30;100861.31;5092692;28;20028;-74
2022/07/25 09:47:22;;;;;;;7.70;2.70;;;;;;;25.14;58.78;100873.44;5092597;28;20020;-73
2022/07/25 09:49:48;;;;;;;8.98;2.60;;;;;;;25.23;60.77;100876.16;5092147;28;20026;-73
2022/07/25 09:52:16;;;;;;;10.35;2.67;;;;;;;25.51;59.03;100863.16;5092671;28;20031;-74
2022/07/25 09:54:41;;;;;;;6.63;2.75;;;;;;;25.61;57.10;100857.88;5092692;28;20028;-73
2022/07/25 09:57:06;;;;;;;7.18;2.72;;;;;;;25.83;57.79;100868.41;5091334;28;20052;-74
2022/07/25 09:59:33;;;;;;;6.13;2.90;;;;;;;25.98;56.44;100865.34;5093028;28;20016;-74
2022/07/25 10:02:07;;;;;;;8.88;3.00;;;;;;;26.15;56.79;100870.03;5092693;28;20028;-73
2022/07/25 10:05:08;;;;;;;9.40;3.05;;;;;;;26.19;56.01;100860.75;5092189;28;20498;-73
2022/07/25 10:07:37;;;;;;;9.20;3.05;;;;;;;26.16;54.93;100866.41;5092469;28;20016;-73
2022/07/25 10:10:02;;;;;;;6.45;2.65;;;;;;;26.24;56.32;100860.38;5091892;28;20076;-73
2022/07/25 10:12:28;;;;;;;6.03;2.70;;;;;;;26.34;53.92;100871.94;5092273;28;20111;-73
2022/07/25 10:15:22;;;;;;;4.53;2.17;;;;;;;26.64;54.83;100879.03;5092170;28;20169;-74
2022/07/25 10:17:50;;;;;;;6.82;2.50;;;;;;;26.72;51.94;100884.53;5076922;28;20051;-73
2022/07/25 10:20:27;;;;;;;5.60;2.65;;;;;;;26.46;50.50;100872.66;5090010;28;20494;-74
2022/07/25 10:22:52;;;;;;;6.32;2.20;;;;;;;26.67;50.29;100856.53;5091814;28;20028;-77
2022/07/25 10:25:19;;;;;;;9.50;2.75;;;;;;;27.14;52.65;100857.53;5090618;28;20016;-77
2022/07/25 10:27:49;;;;;;;5.43;2.20;;;;;;;27.56;48.19;100870.53;5091331;28;20032;-77
2022/07/25 10:30:35;;;;;;;3.05;2.10;;;;;;;28.00;48.17;100863.63;5089839;28;20016;-77
2022/07/25 10:33:05;;;;;;;3.15;2.30;;;;;;;28.26;48.61;100862.09;5091710;28;20035;-77
2022/07/25 10:35:31;;;;;;;3.17;1.80;;;;;;;28.51;43.64;100863.22;5091372;28;20111;-77
2022/07/25 10:37:58;;;;;;;5.47;2.30;;;;;;;28.72;43.85;100861.09;5089615;28;20360;-77
2022/07/25 10:40:31;;;;;;;3.35;1.85;;;;;;;28.88;45.57;100873.81;5088140;28;20028;-77
2022/07/25 10:43:01;;;;;;;7.18;3.50;;;;;;;29.10;44.57;100868.00;5091064;28;20115;-77
2022/07/25 10:45:52;;;;;;;6.18;2.42;;;;;;;29.47;45.04;100876.81;5082592;28;20487;-77
2022/07/25 10:48:24;;;;;;;3.70;2.10;;;;;;;29.83;42.53;100873.00;5086403;28;20086;-76
2022/07/25 10:50:52;;;;;;;3.63;2.05;;;;;;;29.65;43.24;100880.28;5085174;28;20032;-76
2022/07/25 10:53:29;;;;;;;6.50;2.30;;;;;;;29.47;44.94;100879.50;5089279;28;20027;-77
2022/07/25 10:56:04;;;;;;;10.95;4.07;;;;;;;29.50;42.63;100882.69;5089337;28;20036;-76
2022/07/25 10:58:44;;;;;;;6.68;2.75;;;;;;;29.57;44.07;100877.53;5090700;28;20047;-76
2022/07/25 11:01:10;;;;;;;7.93;2.67;;;;;;;29.28;42.40;100880.53;5091190;28;20030;-75
2022/07/25 11:03:35;;;;;;;6.47;2.63;;;;;;;29.31;43.05;100882.91;5089558;28;20024;-75
2022/07/25 11:06:01;;;;;;;6.30;2.78;;;;;;;29.13;42.20;100899.88;5090562;28;20375;-75
2022/07/25 11:08:30;;;;;;;4.28;2.58;;;;;;;28.92;43.27;100896.66;5088239;28;20056;-75
2022/07/25 11:10:56;;;;;;;4.18;2.60;;;;;;;28.87;41.67;100880.16;5089351;28;20030;-76
2022/07/25 11:13:21;;;;;;;4.05;2.72;;;;;;;28.77;43.96;100893.63;5090656;28;20032;-76
2022/07/25 11:15:47;;;;;;;6.75;3.38;;;;;;;28.89;43.65;100897.78;5091127;28;20020;-75
2022/07/25 11:18:12;;;;;;;4.72;3.10;;;;;;;29.03;43.15;100891.06;5090468;28;20455;-76
2022/07/25 11:20:37;;;;;;;7.18;3.38;;;;;;;29.22;44.85;100891.91;5087541;28;20064;-76
2022/07/25 11:23:03;;;;;;;7.15;3.88;;;;;;;29.23;42.46;100897.09;5089600;28;20054;-76